Time,TemperatureF,DewpointF,PressureIn,WindDirection,WindDirectionDegrees,WindSpeedMPH,WindSpeedGustMPH,Humidity,HourlyPrecipIn,Conditions,Clouds,dailyrainin,SoftwareType,DateUTC
2013-01-24 00:01:00,47.9,46.8,30.06,NW,320,0.0,2.0,96,0.00,,,0.00,Wunderground v.1.12,2013-01-24 08:01:00,
2013-01-24 00:07:00,48.0,46.9,30.06,NW,321,0.0,3.0,96,0.00,,,0.00,Wunderground v.1.12,2013-01-24 08:07:00,
2013-01-24 00:13:00,48.0,46.9,30.06,NW,321,0.0,1.0,96,0.00,,,0.00,Wunderground v.1.12,2013-01-24 08:13:00,
2013-01-24 00:19:00,48.2,47.1,30.06,NW,321,0.0,1.0,96,0.00,,,0.00,Wunderground v.1.12,2013-01-24 08:19:00,
2013-01-24 00:24:00,48.0,46.9,30.06,NW,321,0.0,0.0,96,0.00,,,0.00,Wunderground v.1.12,2013-01-24 08:24:00,
2013-01-24 00:29:00,48.0,46.9,30.06,NW,321,0.0,0.0,96,0.00,,,0.00,Wunderground v.1.12,2013-01-24 08:29:00,
2013-01-24 00:35:00,47.9,46.8,30.05,NW,321,0.0,0.0,96,0.00,,,0.00,Wunderground v.1.12,2013-01-24 08:35:00,
2013-01-24 00:41:00,47.9,46.8,30.05,NW,321,0.0,0.0,96,0.00,,,0.00,Wunderground v.1.12,2013-01-24 08:41:00,
2013-01-24 00:47:00,47.7,46.6,30.05,NW,321,0.0,0.0,96,0.00,,,0.00,Wunderground v.1.12,2013-01-24 08:47:00,
2013-01-24 00:53:00,47.9,46.8,30.05,NW,321,0.0,0.0,96,0.00,,,0.00,Wunderground v.1.12,2013-01-24 08:53:00,
2013-01-24 00:58:00,47.9,46.8,30.05,NW,321,0.0,0.0,96,0.00,,,0.00,Wunderground v.1.12,2013-01-24 08:58:00,
2013-01-24 01:04:00,47.9,46.8,30.05,NW,321,0.0,0.0,96,0.00,,,0.00,Wunderground v.1.12,2013-01-24 09:04:00,
2013-01-24 01:09:00,47.7,46.6,30.05,NW,321,0.0,0.0,96,0.00,,,0.00,Wunderground v.1.12,2013-01-24 09:09:00,
2013-01-24 01:15:00,47.7,46.6,30.05,NW,321,0.0,0.0,96,0.00,,,0.00,Wunderground v.1.12,2013-01-24 09:15:00,
2013-01-24 01:21:00,47.9,46.8,30.05,NW,321,0.0,0.0,96,0.00,,,0.00,Wunderground v.1.12,2013-01-24 09:21:00,
2013-01-24 01:27:00,47.9,46.8,30.05,NW,321,0.0,0.0,96,0.00,,,0.00,Wunderground v.1.12,2013-01-24 09:27:00,
2013-01-24 01:33:00,47.9,46.8,30.05,NW,321,0.0,0.0,96,0.00,,,0.00,Wunderground v.1.12,2013-01-24 09:33:00,
2013-01-24 01:39:00,47.9,46.8,30.05,NW,321,0.0,0.0,96,0.00,,,0.00,Wunderground v.1.12,2013-01-24 09:39:00,
2013-01-24 01:44:00,47.9,46.8,30.05,NW,321,0.0,0.0,96,0.00,,,0.00,Wunderground v.1.12,2013-01-24 09:44:00,
2013-01-24 01:49:00,47.9,46.8,30.06,NW,321,0.0,0.0,96,0.00,,,0.00,Wunderground v.1.12,2013-01-24 09:49:00,
2013-01-24 01:55:00,47.9,46.8,30.06,NW,321,0.0,0.0,96,0.00,,,0.00,Wunderground v.1.12,2013-01-24 09:55:00,
2013-01-24 02:00:00,47.7,46.6,30.06,NW,321,0.0,0.0,96,0.00,,,0.00,Wunderground v.1.12,2013-01-24 10:00:00,
2013-01-24 02:05:00,47.7,46.6,30.06,NW,321,0.0,0.0,96,0.00,,,0.00,Wunderground v.1.12,2013-01-24 10:05:00,
2013-01-24 02:10:00,47.7,46.6,30.06,NW,321,0.0,0.0,96,0.00,,,0.00,Wunderground v.1.12,2013-01-24 10:10:00,
2013-01-24 02:16:00,47.6,46.5,30.06,NW,321,0.0,0.0,96,0.00,,,0.00,Wunderground v.1.12,2013-01-24 10:16:00,
2013-01-24 02:21:00,47.6,46.5,30.06,NW,321,0.0,0.0,96,0.00,,,0.00,Wunderground v.1.12,2013-01-24 10:21:00,
2013-01-24 02:26:00,47.6,46.5,30.06,NW,321,0.0,0.0,96,0.00,,,0.00,Wunderground v.1.12,2013-01-24 10:26:00,
2013-01-24 02:31:00,47.6,46.5,30.07,NW,321,0.0,0.0,96,0.00,,,0.00,Wunderground v.1.12,2013-01-24 10:31:00,
2013-01-24 02:36:00,47.6,46.5,30.07,NW,321,0.0,0.0,96,0.00,,,0.00,Wunderground v.1.12,2013-01-24 10:36:00,
2013-01-24 02:41:00,47.6,46.5,30.07,NW,321,0.0,0.0,96,0.00,,,0.00,Wunderground v.1.12,2013-01-24 10:41:00,
2013-01-24 02:46:00,47.6,46.5,30.07,NW,321,0.0,1.0,96,0.00,,,0.00,Wunderground v.1.12,2013-01-24 10:46:00,
2013-01-24 02:51:00,47.6,46.5,30.07,NW,321,0.0,3.0,96,0.00,,,0.00,Wunderground v.1.12,2013-01-24 10:51:00,
2013-01-24 02:57:00,47.6,46.5,30.07,NW,321,0.0,0.0,96,0.00,,,0.00,Wunderground v.1.12,2013-01-24 10:57:00,
2013-01-24 03:01:00,47.6,46.5,30.07,NW,321,0.0,0.0,96,0.00,,,0.00,Wunderground v.1.12,2013-01-24 11:01:00,
2013-01-24 03:06:00,47.6,46.5,30.07,NW,321,0.0,0.0,96,0.00,,,0.00,Wunderground v.1.12,2013-01-24 11:06:00,
2013-01-24 03:12:00,47.6,46.5,30.07,NW,321,1.0,1.0,96,0.00,,,0.00,Wunderground v.1.12,2013-01-24 11:12:00,
2013-01-24 03:17:00,47.6,46.5,30.06,NW,321,0.0,0.0,96,0.00,,,0.00,Wunderground v.1.12,2013-01-24 11:17:00,
2013-01-24 03:22:00,47.6,46.5,30.06,NW,321,0.0,2.0,96,0.00,,,0.00,Wunderground v.1.12,2013-01-24 11:22:00,
2013-01-24 03:27:00,47.7,46.6,30.06,NW,321,0.0,1.0,96,0.00,,,0.00,Wunderground v.1.12,2013-01-24 11:27:00,
2013-01-24 03:32:00,47.7,46.6,30.05,NW,321,3.0,3.0,96,0.00,,,0.00,Wunderground v.1.12,2013-01-24 11:32:00,
2013-01-24 03:37:00,47.7,46.6,30.05,NW,323,0.0,5.0,96,0.00,,,0.00,Wunderground v.1.12,2013-01-24 11:37:00,
2013-01-24 03:42:00,48.0,46.9,30.05,NW,314,0.0,6.0,96,0.00,,,0.00,Wunderground v.1.12,2013-01-24 11:42:00,
2013-01-24 03:47:00,48.0,46.9,30.05,NW,314,0.0,2.0,96,0.00,,,0.00,Wunderground v.1.12,2013-01-24 11:47:00,
2013-01-24 03:52:00,48.0,46.9,30.05,NW,315,2.0,3.0,96,0.00,,,0.00,Wunderground v.1.12,2013-01-24 11:52:00,
2013-01-24 03:57:00,48.0,46.9,30.05,NW,315,0.0,2.0,96,0.00,,,0.00,Wunderground v.1.12,2013-01-24 11:57:00,
2013-01-24 04:02:00,48.0,46.9,30.05,NW,315,0.0,3.0,96,0.00,,,0.00,Wunderground v.1.12,2013-01-24 12:02:00,
2013-01-24 04:08:00,48.0,46.9,30.05,NW,315,0.0,1.0,96,0.00,,,0.00,Wunderground v.1.12,2013-01-24 12:08:00,
2013-01-24 04:13:00,48.2,47.1,30.05,NW,315,3.0,4.0,96,0.00,,,0.00,Wunderground v.1.12,2013-01-24 12:13:00,
2013-01-24 04:18:00,48.2,47.1,30.05,NW,315,2.0,2.0,96,0.00,,,0.00,Wunderground v.1.12,2013-01-24 12:18:00,
2013-01-24 04:23:00,48.3,47.2,30.05,NW,315,0.0,0.0,96,0.00,,,0.00,Wunderground v.1.12,2013-01-24 12:23:00,
2013-01-24 04:28:00,48.5,47.4,30.05,NW,315,3.0,4.0,96,0.00,,,0.00,Wunderground v.1.12,2013-01-24 12:28:00,
2013-01-24 04:34:00,48.6,47.5,30.06,NW,315,0.0,2.0,96,0.00,,,0.00,Wunderground v.1.12,2013-01-24 12:34:00,
2013-01-24 04:39:00,48.6,47.5,30.06,NW,315,0.0,2.0,96,0.00,,,0.00,Wunderground v.1.12,2013-01-24 12:39:00,
2013-01-24 04:44:00,48.5,47.4,30.06,NW,315,0.0,0.0,96,0.00,,,0.00,Wunderground v.1.12,2013-01-24 12:44:00,
2013-01-24 04:49:00,48.5,47.4,30.07,NW,315,0.0,0.0,96,0.00,,,0.00,Wunderground v.1.12,2013-01-24 12:49:00,
2013-01-24 04:54:00,48.3,47.2,30.07,NW,315,0.0,0.0,96,0.00,,,0.00,Wunderground v.1.12,2013-01-24 12:54:00,
2013-01-24 04:59:00,48.2,47.1,30.07,North,5,0.0,2.0,96,0.00,,,0.00,Wunderground v.1.12,2013-01-24 12:59:00,
2013-01-24 05:04:00,48.0,46.9,30.07,North,11,0.0,1.0,96,0.00,,,0.00,Wunderground v.1.12,2013-01-24 13:04:00,
2013-01-24 05:09:00,48.0,46.9,30.07,North,11,0.0,0.0,96,0.00,,,0.00,Wunderground v.1.12,2013-01-24 13:09:00,
2013-01-24 05:14:00,48.0,46.9,30.07,North,11,0.0,0.0,96,0.00,,,0.00,Wunderground v.1.12,2013-01-24 13:14:00,
2013-01-24 05:19:00,48.0,46.9,30.07,North,11,0.0,0.0,96,0.00,,,0.00,Wunderground v.1.12,2013-01-24 13:19:00,
2013-01-24 05:24:00,48.2,47.1,30.07,North,11,0.0,0.0,96,0.00,,,0.00,Wunderground v.1.12,2013-01-24 13:24:00,
2013-01-24 05:29:00,48.2,47.1,30.07,North,11,0.0,0.0,96,0.00,,,0.00,Wunderground v.1.12,2013-01-24 13:29:00,
2013-01-24 05:34:00,48.2,47.1,30.07,North,11,0.0,0.0,96,0.00,,,0.00,Wunderground v.1.12,2013-01-24 13:34:00,
2013-01-24 05:39:00,48.2,47.1,30.07,North,11,0.0,0.0,96,0.00,,,0.00,Wunderground v.1.12,2013-01-24 13:39:00,
2013-01-24 05:45:00,48.0,46.9,30.08,North,11,0.0,0.0,96,0.00,,,0.00,Wunderground v.1.12,2013-01-24 13:45:00,
2013-01-24 05:50:00,48.0,46.9,30.08,North,11,0.0,0.0,96,0.00,,,0.00,Wunderground v.1.12,2013-01-24 13:50:00,
2013-01-24 05:55:00,48.0,46.9,30.08,North,11,0.0,0.0,96,0.00,,,0.00,Wunderground v.1.12,2013-01-24 13:55:00,
2013-01-24 06:00:00,48.0,46.9,30.08,North,11,0.0,0.0,96,0.00,,,0.00,Wunderground v.1.12,2013-01-24 14:00:00,
2013-01-24 06:05:00,48.2,47.1,30.08,North,5,0.0,0.0,96,0.00,,,0.00,Wunderground v.1.12,2013-01-24 14:05:00,
2013-01-24 06:11:00,48.2,47.1,30.08,North,5,0.0,0.0,96,0.00,,,0.00,Wunderground v.1.12,2013-01-24 14:11:00,
2013-01-24 06:16:00,48.2,47.1,30.08,North,5,0.0,2.0,96,0.00,,,0.00,Wunderground v.1.12,2013-01-24 14:16:00,
2013-01-24 06:21:00,48.2,47.1,30.08,North,360,0.0,1.0,96,0.00,,,0.00,Wunderground v.1.12,2013-01-24 14:21:00,
2013-01-24 06:26:00,48.0,46.9,30.08,North,355,6.0,6.0,96,0.00,,,0.00,Wunderground v.1.12,2013-01-24 14:26:00,
2013-01-24 06:31:00,48.2,47.1,30.08,North,355,0.0,4.0,96,0.00,,,0.00,Wunderground v.1.12,2013-01-24 14:31:00,
2013-01-24 06:36:00,48.3,47.2,30.08,North,351,0.0,2.0,96,0.00,,,0.00,Wunderground v.1.12,2013-01-24 14:36:00,
2013-01-24 06:41:00,48.3,47.2,30.08,North,351,0.0,4.0,96,0.00,,,0.00,Wunderground v.1.12,2013-01-24 14:41:00,
2013-01-24 06:46:00,48.3,47.2,30.08,North,351,0.0,1.0,96,0.00,,,0.00,Wunderground v.1.12,2013-01-24 14:46:00,
2013-01-24 06:51:00,48.5,47.4,30.08,North,351,0.0,0.0,96,0.00,,,0.00,Wunderground v.1.12,2013-01-24 14:51:00,
2013-01-24 06:56:00,48.5,47.4,30.08,North,351,0.0,0.0,96,0.00,,,0.00,Wunderground v.1.12,2013-01-24 14:56:00,
2013-01-24 07:01:00,48.6,47.5,30.08,North,351,0.0,0.0,96,0.00,,,0.00,Wunderground v.1.12,2013-01-24 15:01:00,
2013-01-24 07:06:00,48.6,47.5,30.08,NNW,340,3.0,3.0,96,0.00,,,0.00,Wunderground v.1.12,2013-01-24 15:06:00,
2013-01-24 07:11:00,48.8,47.7,30.08,NNW,329,0.0,1.0,96,0.00,,,0.00,Wunderground v.1.12,2013-01-24 15:11:00,
2013-01-24 07:16:00,48.8,47.7,30.08,NNW,329,0.0,2.0,96,0.00,,,0.00,Wunderground v.1.12,2013-01-24 15:16:00,
2013-01-24 07:21:00,48.8,47.7,30.08,NNW,329,2.0,3.0,96,0.00,,,0.00,Wunderground v.1.12,2013-01-24 15:21:00,
2013-01-24 07:26:00,48.8,47.7,30.08,NNW,330,0.0,2.0,96,0.00,,,0.00,Wunderground v.1.12,2013-01-24 15:26:00,
2013-01-24 07:31:00,48.8,47.7,30.08,NNW,330,0.0,1.0,96,0.00,,,0.00,Wunderground v.1.12,2013-01-24 15:31:00,
2013-01-24 07:37:00,48.8,47.7,30.08,NNW,330,0.0,0.0,96,0.00,,,0.00,Wunderground v.1.12,2013-01-24 15:37:00,
2013-01-24 07:42:00,48.8,47.7,30.08,NNW,330,0.0,0.0,96,0.00,,,0.00,Wunderground v.1.12,2013-01-24 15:42:00,
2013-01-24 07:47:00,48.8,47.7,30.09,NNW,330,0.0,0.0,96,0.00,,,0.00,Wunderground v.1.12,2013-01-24 15:47:00,
2013-01-24 07:52:00,48.8,47.7,30.09,NNW,330,0.0,0.0,96,0.00,,,0.00,Wunderground v.1.12,2013-01-24 15:52:00,
2013-01-24 07:57:00,48.9,47.8,30.09,NNW,330,0.0,0.0,96,0.00,,,0.00,Wunderground v.1.12,2013-01-24 15:57:00,
2013-01-24 08:02:00,48.9,47.8,30.09,NNW,330,0.0,0.0,96,0.00,,,0.00,Wunderground v.1.12,2013-01-24 16:02:00,
2013-01-24 08:07:00,48.9,47.8,30.09,NNW,330,0.0,0.0,96,0.00,,,0.00,Wunderground v.1.12,2013-01-24 16:07:00,
2013-01-24 08:12:00,48.9,47.8,30.09,NNW,330,0.0,2.0,96,0.00,,,0.00,Wunderground v.1.12,2013-01-24 16:12:00,
2013-01-24 08:17:00,49.1,48.0,30.09,NNW,330,0.0,0.0,96,0.00,,,0.00,Wunderground v.1.12,2013-01-24 16:17:00,
2013-01-24 08:22:00,49.1,48.0,30.09,NNW,330,0.0,0.0,96,0.00,,,0.00,Wunderground v.1.12,2013-01-24 16:22:00,
2013-01-24 08:27:00,49.1,48.0,30.09,NNW,330,0.0,0.0,96,0.00,,,0.00,Wunderground v.1.12,2013-01-24 16:27:00,
2013-01-24 08:32:00,49.2,48.1,30.09,NNW,330,0.0,0.0,96,0.00,,,0.00,Wunderground v.1.12,2013-01-24 16:32:00,
2013-01-24 08:37:00,49.4,48.3,30.09,NNW,330,0.0,0.0,96,0.00,,,0.00,Wunderground v.1.12,2013-01-24 16:37:00,
2013-01-24 08:42:00,49.5,48.4,30.09,NNW,340,0.0,4.0,96,0.00,,,0.00,Wunderground v.1.12,2013-01-24 16:42:00,
2013-01-24 08:47:00,49.6,48.8,30.10,NNW,340,0.0,0.0,97,0.00,,,0.00,Wunderground v.1.12,2013-01-24 16:47:00,
2013-01-24 08:52:00,49.9,49.1,30.10,NNW,340,0.0,0.0,97,0.00,,,0.00,Wunderground v.1.12,2013-01-24 16:52:00,
2013-01-24 08:57:00,50.1,49.3,30.10,NNW,340,0.0,0.0,97,0.00,,,0.00,Wunderground v.1.12,2013-01-24 16:57:00,
2013-01-24 09:02:00,50.1,49.3,30.10,NNW,340,0.0,0.0,97,0.00,,,0.00,Wunderground v.1.12,2013-01-24 17:02:00,
2013-01-24 09:07:00,50.2,49.4,30.10,NNW,340,0.0,0.0,97,0.00,,,0.00,Wunderground v.1.12,2013-01-24 17:07:00,
2013-01-24 09:12:00,50.2,49.4,30.10,NNW,340,0.0,0.0,97,0.00,,,0.00,Wunderground v.1.12,2013-01-24 17:12:00,
2013-01-24 09:18:00,50.4,49.6,30.11,NNW,340,0.0,0.0,97,0.00,,,0.00,Wunderground v.1.12,2013-01-24 17:18:00,
2013-01-24 09:23:00,50.5,49.7,30.11,NNW,340,0.0,0.0,97,0.00,,,0.00,Wunderground v.1.12,2013-01-24 17:23:00,
2013-01-24 09:28:00,50.7,49.9,30.11,NNW,340,0.0,0.0,97,0.00,,,0.00,Wunderground v.1.12,2013-01-24 17:28:00,
2013-01-24 09:33:00,51.0,50.2,30.11,NNW,340,0.0,0.0,97,0.00,,,0.00,Wunderground v.1.12,2013-01-24 17:33:00,
2013-01-24 09:38:00,51.1,50.3,30.11,NNW,340,0.0,0.0,97,0.00,,,0.00,Wunderground v.1.12,2013-01-24 17:38:00,
2013-01-24 09:43:00,51.4,50.6,30.11,NNW,340,0.0,0.0,97,0.00,,,0.00,Wunderground v.1.12,2013-01-24 17:43:00,
2013-01-24 09:48:00,51.6,50.8,30.11,NNW,340,0.0,0.0,97,0.00,,,0.00,Wunderground v.1.12,2013-01-24 17:48:00,
2013-01-24 09:54:00,51.7,50.9,30.11,NNW,340,0.0,0.0,97,0.00,,,0.00,Wunderground v.1.12,2013-01-24 17:54:00,
2013-01-24 09:59:00,51.9,51.1,30.11,NNW,340,0.0,0.0,97,0.00,,,0.00,Wunderground v.1.12,2013-01-24 17:59:00,
2013-01-24 10:04:00,52.0,51.2,30.12,NNW,340,0.0,0.0,97,0.00,,,0.00,Wunderground v.1.12,2013-01-24 18:04:00,
2013-01-24 10:09:00,52.2,51.4,30.12,NNW,340,0.0,0.0,97,0.00,,,0.00,Wunderground v.1.12,2013-01-24 18:09:00,
2013-01-24 10:15:00,52.2,51.4,30.12,NNW,340,0.0,0.0,97,0.00,,,0.00,Wunderground v.1.12,2013-01-24 18:15:00,
2013-01-24 10:20:00,52.2,51.4,30.13,NNW,340,0.0,0.0,97,0.00,,,0.00,Wunderground v.1.12,2013-01-24 18:20:00,
2013-01-24 10:25:00,52.2,51.4,30.13,NNW,340,0.0,0.0,97,0.00,,,0.00,Wunderground v.1.12,2013-01-24 18:25:00,
2013-01-24 10:30:00,52.2,51.4,30.13,NNW,340,0.0,0.0,97,0.00,,,0.00,Wunderground v.1.12,2013-01-24 18:30:00,
2013-01-24 10:35:00,52.2,51.4,30.13,NNW,340,0.0,0.0,97,0.00,,,0.00,Wunderground v.1.12,2013-01-24 18:35:00,
2013-01-24 10:40:00,52.3,51.5,30.13,NNW,340,0.0,0.0,97,0.00,,,0.00,Wunderground v.1.12,2013-01-24 18:40:00,
2013-01-24 10:45:00,52.6,51.8,30.14,NNW,340,0.0,2.0,97,0.00,,,0.00,Wunderground v.1.12,2013-01-24 18:45:00,
2013-01-24 10:50:00,52.8,52.0,30.14,NNW,346,0.0,0.0,97,0.00,,,0.00,Wunderground v.1.12,2013-01-24 18:50:00,
2013-01-24 10:56:00,52.8,52.0,30.14,NNW,346,0.0,1.0,97,0.00,,,0.00,Wunderground v.1.12,2013-01-24 18:56:00,
2013-01-24 11:01:00,52.8,52.0,30.14,WSW,239,1.0,3.0,97,0.00,,,0.00,Wunderground v.1.12,2013-01-24 19:01:00,
2013-01-24 11:06:00,52.6,51.8,30.14,SSE,153,1.0,1.0,97,0.00,,,0.00,Wunderground v.1.12,2013-01-24 19:06:00,
2013-01-24 11:11:00,52.2,51.1,30.14,South,181,3.0,3.0,96,0.00,,,0.00,Wunderground v.1.12,2013-01-24 19:11:00,
2013-01-24 11:16:00,52.0,50.9,30.14,South,180,0.0,1.0,96,0.00,,,0.00,Wunderground v.1.12,2013-01-24 19:16:00,
2013-01-24 11:22:00,52.2,51.1,30.14,South,175,0.0,1.0,96,0.00,,,0.00,Wunderground v.1.12,2013-01-24 19:22:00,
2013-01-24 11:27:00,52.2,51.1,30.14,South,171,0.0,2.0,96,0.00,,,0.00,Wunderground v.1.12,2013-01-24 19:27:00,
2013-01-24 11:32:00,52.3,51.2,30.14,South,171,0.0,1.0,96,0.00,,,0.00,Wunderground v.1.12,2013-01-24 19:32:00,
2013-01-24 11:37:00,52.0,50.9,30.14,South,181,0.0,1.0,96,0.00,,,0.00,Wunderground v.1.12,2013-01-24 19:37:00,
2013-01-24 11:43:00,51.9,50.8,30.14,South,181,0.0,3.0,96,0.00,,,0.00,Wunderground v.1.12,2013-01-24 19:43:00,
2013-01-24 11:48:00,51.9,50.8,30.14,South,185,0.0,3.0,96,0.00,,,0.00,Wunderground v.1.12,2013-01-24 19:48:00,
2013-01-24 11:53:00,51.7,50.6,30.14,South,185,0.0,3.0,96,0.00,,,0.00,Wunderground v.1.12,2013-01-24 19:53:00,
2013-01-24 11:58:00,51.6,50.5,30.14,South,186,0.0,3.0,96,0.00,,,0.00,Wunderground v.1.12,2013-01-24 19:58:00,
2013-01-24 12:03:00,51.6,50.5,30.13,South,186,0.0,3.0,96,0.00,,,0.00,Wunderground v.1.12,2013-01-24 20:03:00,
2013-01-24 12:09:00,51.7,50.6,30.13,South,186,0.0,0.0,96,0.00,,,0.00,Wunderground v.1.12,2013-01-24 20:09:00,
2013-01-24 12:14:00,51.9,50.8,30.13,South,186,0.0,0.0,96,0.00,,,0.00,Wunderground v.1.12,2013-01-24 20:14:00,
2013-01-24 12:19:00,52.0,50.9,30.13,South,188,0.0,1.0,96,0.00,,,0.00,Wunderground v.1.12,2013-01-24 20:19:00,
2013-01-24 12:24:00,52.2,51.1,30.13,South,188,0.0,0.0,96,0.00,,,0.00,Wunderground v.1.12,2013-01-24 20:24:00,
2013-01-24 12:29:00,52.5,51.4,30.13,South,188,0.0,0.0,96,0.00,,,0.00,Wunderground v.1.12,2013-01-24 20:29:00,
2013-01-24 12:34:00,52.6,51.5,30.12,South,188,0.0,0.0,96,0.00,,,0.00,Wunderground v.1.12,2013-01-24 20:34:00,
2013-01-24 12:39:00,52.8,51.7,30.12,South,188,0.0,0.0,96,0.00,,,0.00,Wunderground v.1.12,2013-01-24 20:39:00,
2013-01-24 12:44:00,52.9,51.8,30.12,South,188,0.0,0.0,96,0.00,,,0.00,Wunderground v.1.12,2013-01-24 20:44:00,
2013-01-24 12:50:00,53.1,52.0,30.12,South,188,0.0,0.0,96,0.00,,,0.00,Wunderground v.1.12,2013-01-24 20:50:00,
2013-01-24 12:55:00,53.3,52.2,30.12,South,188,0.0,0.0,96,0.00,,,0.00,Wunderground v.1.12,2013-01-24 20:55:00,
2013-01-24 13:00:00,53.5,52.1,30.12,South,188,0.0,0.0,95,0.00,,,0.00,Wunderground v.1.12,2013-01-24 21:00:00,
2013-01-24 13:05:00,53.5,52.1,30.12,South,188,0.0,0.0,95,0.00,,,0.00,Wunderground v.1.12,2013-01-24 21:05:00,
2013-01-24 13:10:00,53.5,52.1,30.12,South,188,0.0,0.0,95,0.00,,,0.00,Wunderground v.1.12,2013-01-24 21:10:00,
2013-01-24 13:15:00,53.6,52.2,30.11,South,188,0.0,0.0,95,0.00,,,0.00,Wunderground v.1.12,2013-01-24 21:15:00,
2013-01-24 13:20:00,53.9,52.5,30.11,South,188,0.0,0.0,95,0.00,,,0.00,Wunderground v.1.12,2013-01-24 21:20:00,
2013-01-24 13:25:00,54.1,52.4,30.11,South,188,0.0,0.0,94,0.00,,,0.00,Wunderground v.1.12,2013-01-24 21:25:00,
2013-01-24 13:30:00,54.4,52.7,30.11,South,188,0.0,0.0,94,0.00,,,0.00,Wunderground v.1.12,2013-01-24 21:30:00,
2013-01-24 13:35:00,54.4,52.4,30.11,South,188,0.0,0.0,93,0.00,,,0.00,Wunderground v.1.12,2013-01-24 21:35:00,
2013-01-24 13:40:00,54.4,52.1,30.11,South,188,0.0,0.0,92,0.00,,,0.00,Wunderground v.1.12,2013-01-24 21:40:00,
2013-01-24 13:46:00,54.5,52.2,30.11,South,188,0.0,0.0,92,0.00,,,0.00,Wunderground v.1.12,2013-01-24 21:46:00,
2013-01-24 13:51:00,54.7,52.4,30.11,South,188,0.0,0.0,92,0.00,,,0.00,Wunderground v.1.12,2013-01-24 21:51:00,
2013-01-24 13:56:00,55.0,52.7,30.11,South,188,0.0,0.0,92,0.00,,,0.00,Wunderground v.1.12,2013-01-24 21:56:00,
2013-01-24 14:01:00,55.0,52.7,30.10,South,188,0.0,0.0,92,0.00,,,0.00,Wunderground v.1.12,2013-01-24 22:01:00,
2013-01-24 14:06:00,55.0,52.7,30.10,South,188,0.0,0.0,92,0.00,,,0.00,Wunderground v.1.12,2013-01-24 22:06:00,
2013-01-24 14:11:00,55.1,52.8,30.10,South,188,0.0,0.0,92,0.00,,,0.00,Wunderground v.1.12,2013-01-24 22:11:00,
2013-01-24 14:16:00,55.1,52.8,30.10,South,188,0.0,0.0,92,0.00,,,0.00,Wunderground v.1.12,2013-01-24 22:16:00,
2013-01-24 14:21:00,55.1,52.8,30.10,South,189,0.0,0.0,92,0.00,,,0.00,Wunderground v.1.12,2013-01-24 22:21:00,
2013-01-24 14:26:00,55.1,52.8,30.10,South,189,0.0,0.0,92,0.00,,,0.00,Wunderground v.1.12,2013-01-24 22:26:00,
2013-01-24 14:32:00,55.3,53.0,30.10,South,189,0.0,0.0,92,0.00,,,0.00,Wunderground v.1.12,2013-01-24 22:32:00,
2013-01-24 14:37:00,55.4,53.1,30.10,South,189,0.0,0.0,92,0.00,,,0.00,Wunderground v.1.12,2013-01-24 22:37:00,
2013-01-24 14:42:00,55.4,53.1,30.10,South,189,0.0,0.0,92,0.00,,,0.00,Wunderground v.1.12,2013-01-24 22:42:00,
2013-01-24 14:47:00,55.6,53.3,30.10,South,189,0.0,0.0,92,0.00,,,0.00,Wunderground v.1.12,2013-01-24 22:47:00,
2013-01-24 14:52:00,55.7,53.4,30.10,South,189,0.0,0.0,92,0.00,,,0.00,Wunderground v.1.12,2013-01-24 22:52:00,
2013-01-24 14:57:00,55.9,53.6,30.10,South,189,0.0,0.0,92,0.00,,,0.00,Wunderground v.1.12,2013-01-24 22:57:00,
2013-01-24 15:02:00,56.0,53.7,30.10,South,189,0.0,0.0,92,0.00,,,0.00,Wunderground v.1.12,2013-01-24 23:02:00,
2013-01-24 15:07:00,56.2,53.9,30.10,South,188,0.0,0.0,92,0.00,,,0.00,Wunderground v.1.12,2013-01-24 23:07:00,
2013-01-24 15:12:00,56.2,53.6,30.10,South,189,0.0,0.0,91,0.00,,,0.00,Wunderground v.1.12,2013-01-24 23:12:00,
2013-01-24 15:17:00,56.3,53.7,30.10,South,189,0.0,0.0,91,0.00,,,0.00,Wunderground v.1.12,2013-01-24 23:17:00,
2013-01-24 15:22:00,56.3,53.7,30.10,South,189,0.0,0.0,91,0.00,,,0.00,Wunderground v.1.12,2013-01-24 23:22:00,
2013-01-24 15:28:00,56.3,53.7,30.10,South,189,0.0,0.0,91,0.00,,,0.00,Wunderground v.1.12,2013-01-24 23:28:00,
2013-01-24 15:33:00,56.3,53.4,30.10,South,189,0.0,0.0,90,0.00,,,0.00,Wunderground v.1.12,2013-01-24 23:33:00,
2013-01-24 15:38:00,56.5,53.6,30.10,South,189,0.0,0.0,90,0.00,,,0.00,Wunderground v.1.12,2013-01-24 23:38:00,
2013-01-24 15:43:00,56.5,53.6,30.10,South,189,0.0,0.0,90,0.00,,,0.00,Wunderground v.1.12,2013-01-24 23:43:00,
2013-01-24 15:48:00,56.6,53.7,30.10,South,189,0.0,0.0,90,0.00,,,0.00,Wunderground v.1.12,2013-01-24 23:48:00,
2013-01-24 15:53:00,56.7,53.8,30.10,South,189,0.0,0.0,90,0.00,,,0.00,Wunderground v.1.12,2013-01-24 23:53:00,
2013-01-24 15:58:00,56.7,53.8,30.10,South,189,0.0,0.0,90,0.00,,,0.00,Wunderground v.1.12,2013-01-24 23:58:00,
2013-01-24 16:03:00,56.9,53.7,30.10,South,189,0.0,0.0,89,0.00,,,0.00,Wunderground v.1.12,2013-01-25 00:03:00,
2013-01-24 16:08:00,57.0,54.1,30.10,South,189,0.0,0.0,90,0.00,,,0.00,Wunderground v.1.12,2013-01-25 00:08:00,
2013-01-24 16:13:00,57.2,54.3,30.10,South,189,0.0,0.0,90,0.00,,,0.00,Wunderground v.1.12,2013-01-25 00:13:00,
2013-01-24 16:18:00,57.0,53.8,30.10,SW,228,0.0,0.0,89,0.00,,,0.00,Wunderground v.1.12,2013-01-25 00:18:00,
2013-01-24 16:24:00,57.0,53.8,30.10,SW,228,0.0,0.0,89,0.00,,,0.00,Wunderground v.1.12,2013-01-25 00:24:00,
2013-01-24 16:29:00,57.0,54.1,30.10,SW,228,0.0,0.0,90,0.00,,,0.00,Wunderground v.1.12,2013-01-25 00:29:00,
2013-01-24 16:34:00,57.0,54.1,30.11,SW,228,0.0,0.0,90,0.00,,,0.00,Wunderground v.1.12,2013-01-25 00:34:00,
2013-01-24 16:39:00,57.0,54.1,30.11,SW,228,0.0,0.0,90,0.00,,,0.00,Wunderground v.1.12,2013-01-25 00:39:00,
2013-01-24 16:44:00,57.0,54.1,30.11,SW,228,0.0,0.0,90,0.00,,,0.00,Wunderground v.1.12,2013-01-25 00:44:00,
2013-01-24 16:50:00,56.9,54.0,30.11,SW,228,0.0,0.0,90,0.00,,,0.00,Wunderground v.1.12,2013-01-25 00:50:00,
2013-01-24 16:55:00,56.9,54.0,30.11,SW,228,0.0,0.0,90,0.00,,,0.00,Wunderground v.1.12,2013-01-25 00:55:00,
2013-01-24 17:00:00,56.7,53.5,30.11,SW,228,0.0,0.0,89,0.00,,,0.00,Wunderground v.1.12,2013-01-25 01:00:00,
2013-01-24 17:05:00,56.7,53.5,30.11,SW,228,0.0,0.0,89,0.00,,,0.00,Wunderground v.1.12,2013-01-25 01:05:00,
2013-01-24 17:10:00,56.6,53.4,30.11,SW,228,0.0,0.0,89,0.00,,,0.00,Wunderground v.1.12,2013-01-25 01:10:00,
2013-01-24 17:15:00,56.6,53.4,30.11,SW,228,0.0,1.0,89,0.00,,,0.00,Wunderground v.1.12,2013-01-25 01:15:00,
2013-01-24 17:20:00,56.5,53.3,30.11,SW,228,0.0,0.0,89,0.00,,,0.00,Wunderground v.1.12,2013-01-25 01:20:00,
2013-01-24 17:25:00,56.3,53.1,30.11,SW,228,0.0,0.0,89,0.00,,,0.00,Wunderground v.1.12,2013-01-25 01:25:00,
2013-01-24 17:30:00,56.2,53.3,30.11,SW,228,0.0,0.0,90,0.00,,,0.00,Wunderground v.1.12,2013-01-25 01:30:00,
2013-01-24 17:35:00,56.0,53.1,30.11,SW,228,0.0,0.0,90,0.00,,,0.00,Wunderground v.1.12,2013-01-25 01:35:00,
2013-01-24 17:41:00,55.9,53.0,30.11,SW,228,0.0,0.0,90,0.00,,,0.00,Wunderground v.1.12,2013-01-25 01:41:00,
2013-01-24 17:46:00,55.9,53.0,30.12,SW,228,0.0,0.0,90,0.00,,,0.00,Wunderground v.1.12,2013-01-25 01:46:00,
2013-01-24 17:51:00,55.9,53.0,30.12,SW,228,0.0,0.0,90,0.00,,,0.00,Wunderground v.1.12,2013-01-25 01:51:00,
2013-01-24 17:56:00,55.9,53.0,30.12,SW,228,0.0,0.0,90,0.00,,,0.00,Wunderground v.1.12,2013-01-25 01:56:00,
2013-01-24 18:01:00,55.9,53.0,30.13,SW,228,0.0,0.0,90,0.00,,,0.00,Wunderground v.1.12,2013-01-25 02:01:00,
2013-01-24 18:06:00,55.9,53.0,30.13,SW,228,0.0,0.0,90,0.00,,,0.00,Wunderground v.1.12,2013-01-25 02:06:00,
2013-01-24 18:11:00,55.9,53.0,30.13,SW,228,0.0,0.0,90,0.00,,,0.00,Wunderground v.1.12,2013-01-25 02:11:00,
2013-01-24 18:16:00,55.7,52.8,30.14,SW,228,1.0,2.0,90,0.00,,,0.00,Wunderground v.1.12,2013-01-25 02:16:00,
2013-01-24 18:21:00,55.6,52.7,30.14,SW,228,0.0,1.0,90,0.00,,,0.00,Wunderground v.1.12,2013-01-25 02:21:00,
2013-01-24 18:26:00,55.6,52.7,30.14,SW,228,0.0,0.0,90,0.00,,,0.00,Wunderground v.1.12,2013-01-25 02:26:00,
2013-01-24 18:31:00,55.6,52.7,30.14,SW,228,0.0,0.0,90,0.00,,,0.00,Wunderground v.1.12,2013-01-25 02:31:00,
2013-01-24 18:36:00,55.6,52.7,30.14,SW,228,0.0,0.0,90,0.00,,,0.00,Wunderground v.1.12,2013-01-25 02:36:00,
2013-01-24 18:42:00,55.6,52.7,30.14,SW,228,0.0,0.0,90,0.00,,,0.00,Wunderground v.1.12,2013-01-25 02:42:00,
2013-01-24 18:47:00,55.4,52.5,30.14,SW,227,0.0,0.0,90,0.00,,,0.00,Wunderground v.1.12,2013-01-25 02:47:00,
2013-01-24 18:52:00,55.4,52.5,30.14,South,188,0.0,4.0,90,0.00,,,0.00,Wunderground v.1.12,2013-01-25 02:52:00,
2013-01-24 18:57:00,55.3,52.1,30.14,South,184,0.0,4.0,89,0.00,,,0.00,Wunderground v.1.12,2013-01-25 02:57:00,
2013-01-24 19:02:00,55.1,52.2,30.15,South,184,0.0,1.0,90,0.00,,,0.00,Wunderground v.1.12,2013-01-25 03:02:00,
2013-01-24 19:07:00,55.0,52.1,30.15,South,184,0.0,0.0,90,0.00,,,0.00,Wunderground v.1.12,2013-01-25 03:07:00,
2013-01-24 19:12:00,54.8,51.9,30.15,South,184,0.0,2.0,90,0.00,,,0.00,Wunderground v.1.12,2013-01-25 03:12:00,
2013-01-24 19:17:00,54.8,51.9,30.15,South,184,0.0,0.0,90,0.00,,,0.00,Wunderground v.1.12,2013-01-25 03:17:00,
2013-01-24 19:22:00,54.7,51.8,30.15,South,184,0.0,0.0,90,0.00,,,0.00,Wunderground v.1.12,2013-01-25 03:22:00,
2013-01-24 19:27:00,54.5,51.6,30.15,South,184,0.0,0.0,90,0.00,,,0.00,Wunderground v.1.12,2013-01-25 03:27:00,
2013-01-24 19:32:00,54.4,51.5,30.15,South,184,0.0,0.0,90,0.00,,,0.00,Wunderground v.1.12,2013-01-25 03:32:00,
2013-01-24 19:37:00,54.4,51.5,30.15,South,184,0.0,1.0,90,0.00,,,0.00,Wunderground v.1.12,2013-01-25 03:37:00,
2013-01-24 19:42:00,54.2,51.3,30.15,South,184,0.0,0.0,90,0.00,,,0.00,Wunderground v.1.12,2013-01-25 03:42:00,
2013-01-24 19:48:00,54.2,51.3,30.16,South,184,0.0,1.0,90,0.00,,,0.00,Wunderground v.1.12,2013-01-25 03:48:00,
2013-01-24 19:53:00,54.1,51.2,30.16,South,184,0.0,0.0,90,0.00,,,0.00,Wunderground v.1.12,2013-01-25 03:53:00,
2013-01-24 19:58:00,54.1,51.2,30.16,South,184,0.0,0.0,90,0.00,,,0.00,Wunderground v.1.12,2013-01-25 03:58:00,
2013-01-24 20:03:00,54.1,51.2,30.16,South,184,0.0,0.0,90,0.00,,,0.00,Wunderground v.1.12,2013-01-25 04:03:00,
2013-01-24 20:08:00,53.9,51.0,30.16,South,184,0.0,0.0,90,0.00,,,0.00,Wunderground v.1.12,2013-01-25 04:08:00,
2013-01-24 20:13:00,53.9,51.0,30.16,South,184,0.0,0.0,90,0.00,,,0.00,Wunderground v.1.12,2013-01-25 04:13:00,
2013-01-24 20:18:00,53.9,51.0,30.16,South,184,0.0,0.0,90,0.00,,,0.00,Wunderground v.1.12,2013-01-25 04:18:00,
2013-01-24 20:23:00,53.8,50.9,30.16,South,184,0.0,0.0,90,0.00,,,0.00,Wunderground v.1.12,2013-01-25 04:23:00,
2013-01-24 20:28:00,53.8,50.9,30.16,South,184,0.0,0.0,90,0.00,,,0.00,Wunderground v.1.12,2013-01-25 04:28:00,
2013-01-24 20:33:00,53.8,50.9,30.16,South,184,0.0,0.0,90,0.00,,,0.00,Wunderground v.1.12,2013-01-25 04:33:00,
2013-01-24 20:38:00,53.6,51.0,30.16,South,184,0.0,0.0,91,0.00,,,0.00,Wunderground v.1.12,2013-01-25 04:38:00,
2013-01-24 20:44:00,53.3,50.7,30.16,South,184,0.0,0.0,91,0.00,,,0.00,Wunderground v.1.12,2013-01-25 04:44:00,
2013-01-24 20:49:00,53.3,51.0,30.16,South,184,0.0,0.0,92,0.00,,,0.00,Wunderground v.1.12,2013-01-25 04:49:00,
2013-01-24 20:54:00,53.2,50.9,30.16,South,184,0.0,0.0,92,0.00,,,0.00,Wunderground v.1.12,2013-01-25 04:54:00,
2013-01-24 20:59:00,53.2,50.9,30.16,South,184,0.0,0.0,92,0.00,,,0.00,Wunderground v.1.12,2013-01-25 04:59:00,
2013-01-24 21:00:00,53.2,50.9,30.16,South,184,0.0,0.0,92,0.00,,,0.00,Wunderground v.1.12,2013-01-25 05:00:00,
2013-01-24 21:01:00,53.2,50.9,30.16,South,184,0.0,0.0,92,0.00,,,0.00,Wunderground v.1.12,2013-01-25 05:01:00,
2013-01-24 21:03:00,53.2,50.9,30.16,South,184,0.0,0.0,92,0.00,,,0.00,Wunderground v.1.12,2013-01-25 05:03:00,
2013-01-24 21:08:00,53.2,50.9,30.16,South,184,0.0,0.0,92,0.00,,,0.00,Wunderground v.1.12,2013-01-25 05:08:00,
2013-01-24 21:13:00,53.2,50.9,30.16,South,184,0.0,0.0,92,0.00,,,0.00,Wunderground v.1.12,2013-01-25 05:13:00,
2013-01-24 21:18:00,53.2,50.9,30.16,South,184,0.0,0.0,92,0.00,,,0.00,Wunderground v.1.12,2013-01-25 05:18:00,
2013-01-24 21:23:00,53.2,50.9,30.16,South,184,0.0,0.0,92,0.00,,,0.00,Wunderground v.1.12,2013-01-25 05:23:00,
2013-01-24 21:29:00,53.1,50.8,30.16,South,184,0.0,0.0,92,0.00,,,0.00,Wunderground v.1.12,2013-01-25 05:29:00,
2013-01-24 21:34:00,53.1,50.8,30.16,South,184,0.0,0.0,92,0.00,,,0.00,Wunderground v.1.12,2013-01-25 05:34:00,
2013-01-24 21:39:00,53.1,50.8,30.16,South,184,0.0,0.0,92,0.00,,,0.00,Wunderground v.1.12,2013-01-25 05:39:00,
2013-01-24 21:44:00,53.1,50.8,30.16,South,184,0.0,0.0,92,0.00,,,0.00,Wunderground v.1.12,2013-01-25 05:44:00,
2013-01-24 21:49:00,53.1,50.8,30.17,South,184,0.0,0.0,92,0.00,,,0.00,Wunderground v.1.12,2013-01-25 05:49:00,
2013-01-24 21:54:00,53.1,50.8,30.17,South,184,0.0,0.0,92,0.00,,,0.00,Wunderground v.1.12,2013-01-25 05:54:00,
2013-01-24 22:00:00,52.8,50.5,30.17,South,184,0.0,0.0,92,0.00,,,0.00,Wunderground v.1.12,2013-01-25 06:00:00,
2013-01-24 22:05:00,52.6,50.6,30.17,South,184,0.0,0.0,93,0.00,,,0.00,Wunderground v.1.12,2013-01-25 06:05:00,
2013-01-24 22:10:00,52.5,50.5,30.17,South,184,0.0,0.0,93,0.00,,,0.00,Wunderground v.1.12,2013-01-25 06:10:00,
2013-01-24 22:15:00,52.6,50.6,30.17,South,184,0.0,0.0,93,0.00,,,0.00,Wunderground v.1.12,2013-01-25 06:15:00,
2013-01-24 22:20:00,52.6,50.6,30.17,South,184,0.0,0.0,93,0.00,,,0.00,Wunderground v.1.12,2013-01-25 06:20:00,
2013-01-24 22:25:00,52.8,50.8,30.17,South,184,0.0,0.0,93,0.00,,,0.00,Wunderground v.1.12,2013-01-25 06:25:00,
2013-01-24 22:30:00,52.8,50.8,30.17,South,184,0.0,0.0,93,0.00,,,0.00,Wunderground v.1.12,2013-01-25 06:30:00,
2013-01-24 22:35:00,52.8,50.8,30.17,South,184,0.0,0.0,93,0.00,,,0.00,Wunderground v.1.12,2013-01-25 06:35:00,
2013-01-24 22:40:00,52.8,50.8,30.17,South,184,0.0,0.0,93,0.00,,,0.00,Wunderground v.1.12,2013-01-25 06:40:00,
2013-01-24 22:45:00,52.8,50.8,30.16,South,184,0.0,0.0,93,0.00,,,0.00,Wunderground v.1.12,2013-01-25 06:45:00,
2013-01-24 22:50:00,52.8,50.8,30.16,South,184,0.0,0.0,93,0.00,,,0.00,Wunderground v.1.12,2013-01-25 06:50:00,
2013-01-24 22:55:00,52.6,50.6,30.16,South,184,0.0,0.0,93,0.00,,,0.00,Wunderground v.1.12,2013-01-25 06:55:00,
2013-01-24 23:01:00,52.6,50.6,30.16,South,184,0.0,0.0,93,0.00,,,0.00,Wunderground v.1.12,2013-01-25 07:01:00,
2013-01-24 23:06:00,52.6,50.6,30.16,South,184,0.0,0.0,93,0.00,,,0.00,Wunderground v.1.12,2013-01-25 07:06:00,
2013-01-24 23:11:00,52.5,50.5,30.16,South,184,0.0,0.0,93,0.00,,,0.00,Wunderground v.1.12,2013-01-25 07:11:00,
2013-01-24 23:16:00,52.3,50.3,30.16,South,184,0.0,0.0,93,0.00,,,0.00,Wunderground v.1.12,2013-01-25 07:16:00,
2013-01-24 23:21:00,52.3,50.3,30.16,South,184,0.0,0.0,93,0.00,,,0.00,Wunderground v.1.12,2013-01-25 07:21:00,
2013-01-24 23:26:00,52.2,50.2,30.16,South,184,0.0,0.0,93,0.00,,,0.00,Wunderground v.1.12,2013-01-25 07:26:00,
2013-01-24 23:31:00,52.0,50.0,30.17,South,184,0.0,0.0,93,0.00,,,0.00,Wunderground v.1.12,2013-01-25 07:31:00,
2013-01-24 23:36:00,51.9,49.9,30.17,South,184,0.0,0.0,93,0.00,,,0.00,Wunderground v.1.12,2013-01-25 07:36:00,
2013-01-24 23:41:00,51.7,49.7,30.17,South,184,0.0,0.0,93,0.00,,,0.00,Wunderground v.1.12,2013-01-25 07:41:00,
2013-01-24 23:46:00,51.6,49.6,30.17,South,184,0.0,0.0,93,0.00,,,0.00,Wunderground v.1.12,2013-01-25 07:46:00,
2013-01-24 23:51:00,51.4,49.4,30.17,South,184,0.0,1.0,93,0.00,,,0.00,Wunderground v.1.12,2013-01-25 07:51:00,
2013-01-24 23:56:00,51.3,49.3,30.17,South,184,0.0,0.0,93,0.00,,,0.00,Wunderground v.1.12,2013-01-25 07:56:00,